createdAt,value
2022-12-19T00:02:01.183Z,41.72
2022-12-19T00:05:03.447Z,41.66
2022-12-19T00:08:17.162Z,41.49
2022-12-19T00:11:22.191Z,41.42
2022-12-19T00:14:24.251Z,41.45
2022-12-19T00:17:26.241Z,41.48
2022-12-19T00:20:28.309Z,41.49
2022-12-19T00:23:32.210Z,41.58
2022-12-19T00:26:39.368Z,41.60
2022-12-19T00:29:41.340Z,41.62
2022-12-19T00:32:43.384Z,41.62
2022-12-19T00:35:45.424Z,41.68
2022-12-19T00:38:47.900Z,41.65
2022-12-19T00:41:49.941Z,41.70
2022-12-19T00:44:51.961Z,41.67
2022-12-19T00:47:54.122Z,41.72
2022-12-19T00:51:03.470Z,41.73
2022-12-19T00:54:07.526Z,41.65
2022-12-19T00:57:10.565Z,41.57
2022-12-19T01:00:13.263Z,41.52
2022-12-19T01:03:15.448Z,41.53
2022-12-19T01:06:17.819Z,41.54
2022-12-19T01:09:21.614Z,41.48
2022-12-19T01:12:42.205Z,41.42
2022-12-19T01:15:45.069Z,41.36
2022-12-19T01:18:47.090Z,41.33
2022-12-19T01:21:49.117Z,41.28
2022-12-19T01:24:51.676Z,41.36
2022-12-19T01:27:55.238Z,41.39
2022-12-19T01:30:57.450Z,41.33
2022-12-19T01:34:00.635Z,41.36
2022-12-19T01:37:03.394Z,41.27
2022-12-19T01:40:06.025Z,41.17
2022-12-19T01:43:13.749Z,41.22
2022-12-19T01:46:16.795Z,41.33
2022-12-19T01:49:35.212Z,41.44
2022-12-19T01:52:37.529Z,41.49
2022-12-19T01:55:40.856Z,41.55
2022-12-19T01:58:46.443Z,41.65
2022-12-19T02:01:51.814Z,41.70
2022-12-19T02:04:54.217Z,41.75
2022-12-19T02:07:56.289Z,41.84
2022-12-19T02:10:58.341Z,41.88
2022-12-19T02:14:00.491Z,41.94
2022-12-19T02:17:17.626Z,42.01
2022-12-19T02:20:57.259Z,42.03
2022-12-19T02:24:23.947Z,42.08
2022-12-19T02:27:59.844Z,42.12
2022-12-19T02:31:27.496Z,42.18
2022-12-19T02:34:44.832Z,42.27
2022-12-19T02:38:10.736Z,42.29
2022-12-19T02:41:42.978Z,42.31
2022-12-19T02:44:51.884Z,42.32
2022-12-19T02:47:54.105Z,42.38
2022-12-19T02:50:56.165Z,42.44
2022-12-19T02:53:58.539Z,42.48
2022-12-19T02:57:33.222Z,42.52
2022-12-19T03:00:45.428Z,42.59
2022-12-19T03:04:17.174Z,42.64
2022-12-19T03:07:19.146Z,42.65
2022-12-19T03:11:05.405Z,42.70
2022-12-19T03:14:11.335Z,42.71
2022-12-19T03:17:13.408Z,42.79
2022-12-19T03:20:41.312Z,42.77
2022-12-19T03:23:44.577Z,42.86
2022-12-19T03:27:02.737Z,42.91
2022-12-19T03:30:11.867Z,42.96
2022-12-19T03:33:16.065Z,42.87
2022-12-19T03:36:22.934Z,42.90
2022-12-19T03:39:26.545Z,42.95
2022-12-19T03:42:48.627Z,43.01
2022-12-19T03:46:17.787Z,43.06
2022-12-19T03:49:20.093Z,43.06
2022-12-19T03:52:34.025Z,43.09
2022-12-19T03:55:52.245Z,43.12
2022-12-19T03:59:00.659Z,43.13
2022-12-19T04:02:04.315Z,43.16
2022-12-19T04:05:16.947Z,43.07
2022-12-19T04:08:19.124Z,43.11
2022-12-19T04:11:21.604Z,43.13
2022-12-19T04:14:35.403Z,43.14
2022-12-19T04:17:58.709Z,43.21
2022-12-19T04:21:17.317Z,43.17
2022-12-19T04:24:25.475Z,43.06
2022-12-19T04:27:28.202Z,42.84
2022-12-19T04:30:31.259Z,42.65
2022-12-19T04:33:39.005Z,42.62
2022-12-19T04:36:41.044Z,42.57
2022-12-19T04:39:43.048Z,42.54
2022-12-19T04:42:45.108Z,42.45
2022-12-19T04:45:47.201Z,42.36
2022-12-19T04:48:51.012Z,42.29
2022-12-19T04:51:53.196Z,42.20
2022-12-19T04:54:55.835Z,42.02
2022-12-19T04:57:58.147Z,41.84
2022-12-19T05:01:04.845Z,41.65
2022-12-19T05:04:06.904Z,41.74
2022-12-19T05:07:09.157Z,41.88
2022-12-19T05:10:11.293Z,41.87
2022-12-19T05:13:13.304Z,41.92
2022-12-19T05:16:16.002Z,42.02
2022-12-19T05:19:18.425Z,42.13
2022-12-19T05:22:20.410Z,42.09
2022-12-19T05:25:22.443Z,41.97
2022-12-19T05:28:24.688Z,41.96
2022-12-19T05:31:26.790Z,41.99
2022-12-19T05:34:28.981Z,42.13
2022-12-19T05:37:31.036Z,42.14
2022-12-19T05:40:33.868Z,42.00
2022-12-19T05:43:36.222Z,41.94
2022-12-19T05:46:38.308Z,41.90
2022-12-19T05:49:40.319Z,42.10
2022-12-19T05:52:42.887Z,42.32
2022-12-19T05:55:45.177Z,42.36
2022-12-19T05:58:47.678Z,42.17
2022-12-19T06:01:49.739Z,42.08
2022-12-19T06:04:52.367Z,42.18
2022-12-19T06:07:54.893Z,42.29
2022-12-19T06:11:00.341Z,42.29
2022-12-19T06:14:02.375Z,42.11
2022-12-19T06:17:04.385Z,41.95
2022-12-19T06:20:07.022Z,41.91
2022-12-19T06:23:09.047Z,41.94
2022-12-19T06:26:18.727Z,41.90
2022-12-19T06:29:21.342Z,41.87
2022-12-19T06:32:23.370Z,41.58
2022-12-19T06:35:25.537Z,41.55
2022-12-19T06:38:28.746Z,41.62
2022-12-19T06:41:49.744Z,41.63
2022-12-19T06:44:54.331Z,41.59
2022-12-19T06:47:57.905Z,41.49
2022-12-19T06:51:01.733Z,41.36
2022-12-19T06:54:04.026Z,41.43
2022-12-19T06:57:06.112Z,41.50
2022-12-19T07:00:09.032Z,41.36
2022-12-19T07:03:14.016Z,41.21
2022-12-19T07:06:16.275Z,41.05
2022-12-19T07:09:18.486Z,41.07
2022-12-19T07:12:20.486Z,41.04
2022-12-19T07:15:22.844Z,41.11
2022-12-19T07:18:24.928Z,40.91
2022-12-19T07:21:26.960Z,40.89
2022-12-19T07:24:29.850Z,40.97
2022-12-19T07:27:35.921Z,41.02
2022-12-19T07:30:38.345Z,40.81
2022-12-19T07:33:43.372Z,40.88
2022-12-19T07:36:45.407Z,41.05
2022-12-19T07:39:48.015Z,41.29
2022-12-19T07:42:50.071Z,41.30
2022-12-19T07:45:55.398Z,41.23
2022-12-19T07:48:57.458Z,41.23
2022-12-19T07:51:59.575Z,41.34
2022-12-19T07:55:01.550Z,41.51
2022-12-19T07:58:03.831Z,41.39
2022-12-19T08:01:06.401Z,41.23
2022-12-19T08:04:09.843Z,41.35
2022-12-19T08:07:12.678Z,41.81
2022-12-19T08:10:15.691Z,42.23
2022-12-19T08:13:17.775Z,42.26
2022-12-19T08:16:20.204Z,42.40
2022-12-19T08:19:27.137Z,42.61
2022-12-19T08:22:31.188Z,42.89
2022-12-19T08:25:33.511Z,43.27
2022-12-19T08:28:37.083Z,43.32
2022-12-19T08:31:39.331Z,43.07
2022-12-19T08:34:41.465Z,43.00
2022-12-19T08:37:43.521Z,43.15
2022-12-19T08:40:54.672Z,43.35
2022-12-19T08:43:56.708Z,43.38
2022-12-19T08:46:58.791Z,43.24
2022-12-19T08:50:01.002Z,43.16
2022-12-19T08:53:03.036Z,43.16
2022-12-19T08:56:08.541Z,43.26
2022-12-19T08:59:10.639Z,43.29
2022-12-19T09:02:16.172Z,43.06
2022-12-19T09:05:58.358Z,42.57
2022-12-19T09:08:41.531Z,42.58
2022-12-19T09:11:47.380Z,42.74
2022-12-19T09:14:50.602Z,42.93
2022-12-19T09:17:52.626Z,43.26
2022-12-19T09:20:55.640Z,43.23
2022-12-19T09:24:06.970Z,43.11
2022-12-19T09:27:09.622Z,43.29
2022-12-19T09:30:12.839Z,43.14
2022-12-19T09:33:15.901Z,42.88
2022-12-19T09:36:22.880Z,42.95
2022-12-19T09:39:24.947Z,43.26
2022-12-19T09:43:04.265Z,43.27
2022-12-19T09:46:27.128Z,43.20
2022-12-19T09:49:44.596Z,42.82
2022-12-19T09:52:55.285Z,43.12
2022-12-19T09:55:59.600Z,43.33
2022-12-19T09:59:10.811Z,43.26
2022-12-19T10:02:41.719Z,43.16
2022-12-19T10:07:16.372Z,43.21
2022-12-19T10:11:54.329Z,43.51
2022-12-19T10:13:35.615Z,43.54
2022-12-19T10:17:22.615Z,42.84
2022-12-19T10:20:26.591Z,42.69
2022-12-19T10:24:05.185Z,42.80
2022-12-19T10:27:22.923Z,42.62
2022-12-19T10:30:26.114Z,42.77
2022-12-19T10:33:38.402Z,42.53
2022-12-19T10:40:30.437Z,42.10
2022-12-19T10:43:50.917Z,41.91
2022-12-19T10:46:53.270Z,42.00
2022-12-19T10:49:55.512Z,41.65
2022-12-19T10:53:11.566Z,41.58
2022-12-19T10:56:36.778Z,41.75
2022-12-19T10:59:39.699Z,41.70
2022-12-19T11:02:47.758Z,41.74
2022-12-19T11:05:58.670Z,41.60
2022-12-19T11:09:29.468Z,41.49
2022-12-19T11:17:19.632Z,41.48
2022-12-19T11:20:27.442Z,41.04
2022-12-19T11:29:16.740Z,40.32
2022-12-19T11:29:39.639Z,39.75
2022-12-19T11:30:48.365Z,39.83
2022-12-19T11:33:19.037Z,40.07
2022-12-19T11:36:43.240Z,39.56
2022-12-19T11:39:50.377Z,39.51
2022-12-19T11:43:41.917Z,39.65
2022-12-19T11:46:58.970Z,40.06
2022-12-19T11:50:11.168Z,39.82
2022-12-19T11:53:30.237Z,39.96
2022-12-19T11:56:34.027Z,39.85
2022-12-19T11:59:38.199Z,39.98
2022-12-19T12:03:01.337Z,40.33
2022-12-19T12:06:11.933Z,40.66
2022-12-19T12:10:41.820Z,40.78
2022-12-19T12:22:09.405Z,40.84
2022-12-19T12:31:01.791Z,40.78
2022-12-19T12:31:22.012Z,40.93
2022-12-19T12:31:43.659Z,40.65
2022-12-19T12:31:45.499Z,40.38
2022-12-19T12:39:05.824Z,40.34
2022-12-19T12:42:15.345Z,40.74
2022-12-19T12:45:19.989Z,41.45
2022-12-19T12:48:27.677Z,42.35
2022-12-19T12:51:33.463Z,42.32
2022-12-19T12:54:43.323Z,42.38
2022-12-19T12:57:45.398Z,42.37
2022-12-19T13:01:11.892Z,42.06
2022-12-19T13:04:14.217Z,42.13
2022-12-19T13:07:27.785Z,42.19
2022-12-19T13:10:32.925Z,43.36
2022-12-19T13:13:54.780Z,44.65
2022-12-19T13:16:57.701Z,45.25
2022-12-19T13:20:05.775Z,45.04
2022-12-19T13:23:21.829Z,45.00
2022-12-19T13:26:45.184Z,45.16
2022-12-19T13:30:03.661Z,45.09
2022-12-19T13:33:07.570Z,45.35
2022-12-19T13:39:48.235Z,45.36
2022-12-19T13:40:26.123Z,45.62
2022-12-19T13:43:48.762Z,45.91
2022-12-19T13:46:51.791Z,45.42
2022-12-19T13:49:54.500Z,44.95
2022-12-19T13:52:56.882Z,44.76
2022-12-19T13:56:18.497Z,44.29
2022-12-19T13:59:23.429Z,44.09
2022-12-19T14:02:30.524Z,44.12
2022-12-19T14:06:18.457Z,44.18
2022-12-19T14:11:24.062Z,44.19
2022-12-19T14:13:52.745Z,44.21
2022-12-19T14:16:19.766Z,44.22
2022-12-19T14:19:27.738Z,44.24
2022-12-19T14:22:29.778Z,44.32
2022-12-19T14:28:18.191Z,44.51
2022-12-19T14:29:45.523Z,43.78
2022-12-19T14:33:43.625Z,44.43
2022-12-19T14:36:21.396Z,44.78
2022-12-19T14:39:32.958Z,44.68
2022-12-19T14:43:57.771Z,44.68
2022-12-19T14:54:04.968Z,45.22
2022-12-19T14:54:05.134Z,44.96
2022-12-19T14:54:28.469Z,45.33
2022-12-19T14:56:59.598Z,45.43
2022-12-19T15:01:08.493Z,45.52
2022-12-19T15:04:50.609Z,45.00
2022-12-19T15:07:23.448Z,45.25
2022-12-19T15:11:02.905Z,45.11
2022-12-19T15:14:56.319Z,45.18
2022-12-19T15:17:22.086Z,45.26
2022-12-19T15:20:24.189Z,45.37
2022-12-19T15:23:26.945Z,45.54
2022-12-19T15:26:52.143Z,45.63
2022-12-19T15:29:54.392Z,45.39
2022-12-19T15:32:56.450Z,45.17
2022-12-19T15:35:58.948Z,45.46
2022-12-19T15:39:01.035Z,45.66
2022-12-19T15:42:03.965Z,45.80
2022-12-19T15:45:07.837Z,45.84
2022-12-19T15:48:15.172Z,45.78
2022-12-19T15:51:17.487Z,45.73
2022-12-19T15:57:45.444Z,45.75
2022-12-19T16:01:02.395Z,45.89
2022-12-19T16:04:09.694Z,45.86
2022-12-19T16:07:17.127Z,45.84
2022-12-19T16:10:19.577Z,45.90
2022-12-19T16:13:24.983Z,45.86
2022-12-19T16:16:27.034Z,45.87
2022-12-19T16:19:31.028Z,45.83
2022-12-19T16:22:33.058Z,45.78
2022-12-19T16:25:47.109Z,45.77
2022-12-19T16:28:49.162Z,45.73
2022-12-19T16:31:51.293Z,45.78
2022-12-19T16:34:54.304Z,45.77
2022-12-19T16:37:56.345Z,45.73
2022-12-19T16:40:58.470Z,45.73
2022-12-19T16:44:01.280Z,45.70
2022-12-19T16:47:03.483Z,45.70
2022-12-19T16:50:22.911Z,45.73
2022-12-19T16:53:24.977Z,45.72
2022-12-19T16:56:34.211Z,45.70
2022-12-19T16:59:38.261Z,45.61
2022-12-19T17:02:49.277Z,45.65
2022-12-19T17:05:51.501Z,45.61
2022-12-19T17:08:53.519Z,45.57
2022-12-19T17:12:00.908Z,45.55
2022-12-19T17:15:07.714Z,45.37
2022-12-19T17:18:29.811Z,45.39
2022-12-19T17:21:31.917Z,45.32
2022-12-19T17:24:33.963Z,44.75
2022-12-19T17:27:36.032Z,44.44
2022-12-19T17:30:39.031Z,44.52
2022-12-19T17:33:41.231Z,44.45
2022-12-19T17:36:43.362Z,44.38
2022-12-19T17:39:45.511Z,44.41
2022-12-19T17:42:47.921Z,44.48
2022-12-19T17:45:51.055Z,44.44
2022-12-19T17:49:02.950Z,44.48
2022-12-19T17:52:10.623Z,44.53
2022-12-19T17:55:22.105Z,44.53
2022-12-19T17:58:24.301Z,44.66
2022-12-19T18:01:26.589Z,44.61
2022-12-19T18:04:30.137Z,44.67
2022-12-19T18:07:32.143Z,44.64
2022-12-19T18:10:34.170Z,44.67
2022-12-19T18:13:36.193Z,44.66
2022-12-19T18:16:38.395Z,44.68
2022-12-19T18:19:40.640Z,44.72
2022-12-19T18:22:42.746Z,44.72
2022-12-19T18:25:45.998Z,44.71
2022-12-19T18:28:48.076Z,44.72
2022-12-19T18:31:51.348Z,44.82
2022-12-19T18:34:53.586Z,44.84
2022-12-19T18:37:58.804Z,44.87
2022-12-19T18:41:01.113Z,44.92
2022-12-19T18:44:03.153Z,44.90
2022-12-19T18:47:05.220Z,44.93
2022-12-19T18:50:16.341Z,44.96
2022-12-19T18:53:25.058Z,44.97
2022-12-19T18:56:28.549Z,44.96
2022-12-19T18:59:30.618Z,45.03
2022-12-19T19:02:33.873Z,45.02
2022-12-19T19:05:38.083Z,44.97
2022-12-19T19:08:40.183Z,45.00
2022-12-19T19:11:42.428Z,45.06
2022-12-19T19:14:44.455Z,45.07
2022-12-19T19:17:49.189Z,45.12
2022-12-19T19:21:00.425Z,45.06
2022-12-19T19:24:08.511Z,45.06
2022-12-19T19:27:10.625Z,45.16
2022-12-19T19:30:13.278Z,45.19
2022-12-19T19:33:29.965Z,45.19
2022-12-19T19:36:36.358Z,45.17
2022-12-19T19:39:38.497Z,45.16
2022-12-19T19:42:40.491Z,45.20
2022-12-19T19:45:43.799Z,45.19
2022-12-19T19:48:47.505Z,45.21
2022-12-19T19:51:49.515Z,45.20
2022-12-19T19:54:51.519Z,45.20
2022-12-19T19:57:54.007Z,45.19
2022-12-19T20:00:59.351Z,45.19
2022-12-19T20:04:02.147Z,45.14
2022-12-19T20:07:04.937Z,45.19
2022-12-19T20:10:08.197Z,45.18
2022-12-19T20:13:11.124Z,45.17
2022-12-19T20:16:16.308Z,45.09
2022-12-19T20:19:18.461Z,45.09
2022-12-19T20:22:20.549Z,45.04
2022-12-19T20:25:22.616Z,45.09
2022-12-19T20:28:24.598Z,45.22
2022-12-19T20:31:27.322Z,45.22
2022-12-19T20:34:29.479Z,45.28
2022-12-19T20:37:32.808Z,45.20
2022-12-19T20:40:34.868Z,45.32
2022-12-19T20:43:38.366Z,45.37
2022-12-19T20:46:40.437Z,45.29
2022-12-19T20:49:42.520Z,45.38
2022-12-19T20:52:44.563Z,45.34
2022-12-19T20:55:57.629Z,45.38
2022-12-19T20:59:00.275Z,45.35
2022-12-19T21:02:02.657Z,45.38
2022-12-19T21:05:05.478Z,45.34
2022-12-19T21:08:07.947Z,45.32
2022-12-19T21:11:10.594Z,45.38
2022-12-19T21:14:12.722Z,45.45
2022-12-19T21:17:14.800Z,45.48
2022-12-19T21:20:19.861Z,45.42
2022-12-19T21:23:23.360Z,45.49
2022-12-19T21:26:26.061Z,45.45
2022-12-19T21:29:28.173Z,45.48
2022-12-19T21:32:30.312Z,45.42
2022-12-19T21:35:34.900Z,45.51
2022-12-19T21:38:37.946Z,45.46
2022-12-19T21:41:39.985Z,45.54
2022-12-19T21:44:42.101Z,45.51
2022-12-19T21:47:44.223Z,45.55
2022-12-19T21:50:46.563Z,45.50
2022-12-19T21:53:48.862Z,45.55
2022-12-19T21:56:51.105Z,45.61
2022-12-19T21:59:53.265Z,45.60
2022-12-19T22:03:12.660Z,45.68
2022-12-19T22:06:28.805Z,45.73
2022-12-19T22:09:30.917Z,45.82
2022-12-19T22:12:32.967Z,45.80
2022-12-19T22:15:36.758Z,45.83
2022-12-19T22:18:39.629Z,45.86
2022-12-19T22:21:41.844Z,45.99
2022-12-19T22:24:43.939Z,45.96
2022-12-19T22:27:45.992Z,46.03
2022-12-19T22:30:48.058Z,46.06
2022-12-19T22:33:52.207Z,46.08
2022-12-19T22:36:54.249Z,46.10
2022-12-19T22:39:59.999Z,46.07
2022-12-19T22:43:02.120Z,46.12
2022-12-19T22:46:18.319Z,46.08
2022-12-19T22:49:20.913Z,46.06
2022-12-19T22:52:23.750Z,46.05
2022-12-19T22:55:25.835Z,46.09
2022-12-19T22:58:30.017Z,46.11
2022-12-19T23:01:36.673Z,46.06
2022-12-19T23:04:38.857Z,46.09
2022-12-19T23:07:40.939Z,46.14
2022-12-19T23:10:43.033Z,46.09
2022-12-19T23:13:46.268Z,46.10
2022-12-19T23:16:48.609Z,46.10
2022-12-19T23:19:50.709Z,46.11
2022-12-19T23:22:52.720Z,46.10
2022-12-19T23:25:54.815Z,46.15
2022-12-19T23:29:01.801Z,46.11
2022-12-19T23:32:04.075Z,46.11
2022-12-19T23:35:06.465Z,46.09
2022-12-19T23:38:08.604Z,46.12
2022-12-19T23:41:13.742Z,46.13
2022-12-19T23:44:15.855Z,46.12
2022-12-19T23:47:17.934Z,46.12
2022-12-19T23:50:19.953Z,46.08
2022-12-19T23:53:22.055Z,46.07
2022-12-19T23:56:29.587Z,46.03
2022-12-19T23:59:31.595Z,46.10
